Huntley, Wyoming
Current Conditions -  °F | °C
As of 8:53 PM on Friday 24 Oct 2014 (Local Time) from KTOR Reporting Station
Clear Clear  
Wind Chill: 59°   Ceiling: Unl
Heat Index: 59°   Visibility: 10mi
Dew Point: 28°   Wind: 8mph
Humidity: 31%   Direction: 220°SW
Pressure: 30.09"   Gusts: NA
Location:  41.93°N, 104.15°W
Report Text: KTOR 250253Z AUTO 22007KT 10SM CLR 15/M02 A3009 RMK AO2 SLP160 T01501022 53017
Loading
Personal Weather Stations






























Interactive Weather Map
Tropical Storm Tracking
New forecast layout! Learn more

10-Day Weather Forecast

Advertisements
Track Severe Weather on mobile